Portada
METAR-TAF:

METAR-TAF

Aeroports :

Mount Washington Regional Airport

Whitefield, Nova Hampshire, Estats Units d'Amèrica

latitud: 44-21-58N, longitud: 071-33-09W, altitud: 327 m

Observació

L'informe es va fer fa 36 minuts, a les 21:52 UTC
Vent 10 kt del Sud
Temperatura 21°C
Humitat 30%
Pressió 1022 hPa
Visibilitat: 16.1 km
Cel clar

METAR: KHIE 242152Z AUTO 17010KT 10SM CLR 21/03 A3018 RMK AO2 SLP225 T02110028

Hora: 18:28 (22:28 UTC)

Pronòstic

L'informe es va fer fa 5 hores i 8 minuts, a les 17:20 UTC
Pronòstic vàlid del 24 a les 18 UTC al 25 a les 18 UTC
Vent 7 kt del Sud
Visibilitat: 10 km
Escasses núvols a una alçada de 25000 ft

TAF: KHIE 241720Z 2418/2518 18007KT P6SM FEW250

Observacions i pronòstics meteorològics de més de 4000 aeroports (METAR i TAF).

Les estacions disponibles són els punts grocs i vermells al mapa.

Posi el ratolí al punt desitjat per veure el nom de l'estació.

Feu clic per veure les observacions i els pronòstics meteorològics.

Per canviar el mapa: feu clic els botons verds amb una creu de color negre per apropar; al botó verd amb un guió per allunyar la imatge; o en les fletxes verdes per a mapes adjacents.


METAR-TAF: